Time;durP1;ratioP1;P1;durP2;ratioP2;P2;SDS_P1;SDS_P2;PMS_P1;PMS_P2;Temp;Humidity;BMP_temperature;BMP_pressure;BME280_temperature;BME280_humidity;BME280_pressure;Samples;Min_cycle;Max_cycle;Signal;HPM_P1;HPM_P2
2021/07/10 00:02:01;;;;;;;24.10;14.43;;;17.20;99.90;;;;;;5111453;28;20385;-72
2021/07/10 00:04:27;;;;;;;23.63;13.40;;;17.20;99.90;;;;;;5093906;28;20409;-71
2021/07/10 00:06:54;;;;;;;24.80;14.30;;;17.30;99.90;;;;;;5111395;28;20441;-71
2021/07/10 00:09:19;;;;;;;21.52;13.13;;;17.30;99.90;;;;;;5111726;28;20027;-72
2021/07/10 00:11:46;;;;;;;21.58;13.70;;;17.20;99.90;;;;;;5111355;28;20371;-71
2021/07/10 00:14:12;;;;;;;29.70;13.60;;;17.30;99.90;;;;;;5111168;28;20164;-71
2021/07/10 00:16:37;;;;;;;34.45;14.48;;;17.30;99.90;;;;;;5110981;28;20114;-72
2021/07/10 00:19:03;;;;;;;27.83;14.43;;;17.30;99.90;;;;;;5110974;28;20028;-71
2021/07/10 00:21:29;;;;;;;21.17;13.88;;;17.20;99.90;;;;;;5111603;28;20027;-72
2021/07/10 00:23:54;;;;;;;27.23;13.85;;;17.30;99.90;;;;;;5111238;28;20038;-72
2021/07/10 00:26:20;;;;;;;28.60;14.95;;;17.20;99.90;;;;;;5110116;28;20104;-71
2021/07/10 00:28:45;;;;;;;30.52;13.70;;;17.20;99.90;;;;;;5092878;28;20513;-72
2021/07/10 00:31:11;;;;;;;24.02;12.95;;;17.20;99.90;;;;;;5110874;28;20466;-71
2021/07/10 00:33:37;;;;;;;23.58;13.02;;;17.20;99.90;;;;;;5110829;28;20015;-72
2021/07/10 00:36:03;;;;;;;24.85;14.00;;;17.20;99.90;;;;;;5093443;28;20115;-72
2021/07/10 00:38:28;;;;;;;36.08;14.85;;;17.10;99.90;;;;;;5111122;28;20453;-73
2021/07/10 00:40:54;;;;;;;26.67;13.60;;;17.20;99.90;;;;;;5110985;28;20357;-71
2021/07/10 00:43:21;;;;;;;20.17;13.38;;;17.00;99.90;;;;;;5111158;28;20097;-70
2021/07/10 00:45:47;;;;;;;27.33;13.25;;;17.10;99.90;;;;;;5111140;28;20380;-72
2021/07/10 00:48:13;;;;;;;20.85;13.13;;;17.10;99.90;;;;;;5092629;28;20042;-72
2021/07/10 00:50:39;;;;;;;21.75;13.90;;;17.10;99.90;;;;;;5110904;28;20024;-71
2021/07/10 00:53:05;;;;;;;25.67;13.73;;;17.20;99.90;;;;;;5110820;28;20034;-72
2021/07/10 00:55:30;;;;;;;30.08;13.20;;;17.20;99.90;;;;;;5110767;28;20027;-72
2021/07/10 00:57:58;;;;;;;24.92;14.02;;;17.10;99.90;;;;;;5110730;28;20127;-72
2021/07/10 01:00:24;;;;;;;21.95;12.95;;;17.00;99.90;;;;;;5111266;28;20020;-72
2021/07/10 01:02:52;;;;;;;31.63;13.55;;;17.00;99.90;;;;;;5110596;28;20032;-72
2021/07/10 01:05:20;;;;;;;27.48;13.68;;;17.00;99.90;;;;;;5110786;28;20024;-71
2021/07/10 01:07:46;;;;;;;25.55;12.98;;;17.00;99.90;;;;;;5110640;28;20488;-71
2021/07/10 01:10:13;;;;;;;22.23;13.50;;;17.00;99.90;;;;;;5110575;28;20035;-73
2021/07/10 01:12:41;;;;;;;27.75;13.63;;;17.00;99.90;;;;;;5110569;28;20024;-70
2021/07/10 01:15:09;;;;;;;21.08;14.05;;;17.00;99.90;;;;;;5111163;28;20314;-71
2021/07/10 01:17:35;;;;;;;24.52;13.68;;;17.00;99.90;;;;;;5092582;28;20373;-72
2021/07/10 01:20:03;;;;;;;28.95;13.93;;;17.10;99.90;;;;;;5092559;28;20485;-72
2021/07/10 01:22:29;;;;;;;23.50;14.20;;;17.10;99.90;;;;;;5110511;28;20035;-71
2021/07/10 01:24:55;;;;;;;23.45;13.77;;;17.10;99.90;;;;;;5110783;28;20038;-70
2021/07/10 01:27:20;;;;;;;26.45;13.55;;;17.10;99.90;;;;;;5111040;28;20043;-72
2021/07/10 01:29:47;;;;;;;23.60;13.13;;;17.10;99.90;;;;;;5110420;28;20093;-71
2021/07/10 01:32:17;;;;;;;21.65;13.80;;;17.10;99.90;;;;;;5110252;28;20044;-72
2021/07/10 01:34:47;;;;;;;24.13;13.40;;;17.10;99.90;;;;;;5110186;28;20031;-73
2021/07/10 01:37:14;;;;;;;26.45;14.70;;;17.20;99.90;;;;;;5132544;27;20023;-72
2021/07/10 01:39:40;;;;;;;26.98;14.63;;;17.10;99.90;;;;;;5134295;27;20062;-72
2021/07/10 01:42:06;;;;;;;25.92;13.15;;;17.10;99.90;;;;;;5134889;27;20015;-73
2021/07/10 01:44:33;;;;;;;24.17;13.02;;;17.00;99.90;;;;;;5134588;27;20425;-72
2021/07/10 01:46:59;;;;;;;22.80;12.85;;;17.00;99.90;;;;;;5134403;27;20035;-72
2021/07/10 01:49:24;;;;;;;25.20;12.90;;;16.90;99.90;;;;;;5134208;27;20062;-71
2021/07/10 01:51:50;;;;;;;24.30;14.48;;;16.90;99.90;;;;;;5134610;27;20027;-72
2021/07/10 01:54:15;;;;;;;28.05;14.95;;;16.90;99.90;;;;;;5135211;27;20452;-71
2021/07/10 01:56:41;;;;;;;24.52;13.95;;;16.90;99.90;;;;;;5134141;27;20038;-71
2021/07/10 01:59:07;;;;;;;22.23;13.80;;;16.80;99.90;;;;;;5134360;27;20535;-71
2021/07/10 02:01:32;;;;;;;25.60;14.57;;;16.80;99.90;;;;;;5134232;27;20024;-72
2021/07/10 02:03:59;;;;;;;24.92;15.00;;;16.80;99.90;;;;;;5134143;27;20083;-72
2021/07/10 02:06:25;;;;;;;31.75;13.88;;;16.70;99.90;;;;;;5134758;27;20114;-72
2021/07/10 02:08:51;;;;;;;28.90;15.35;;;16.70;99.90;;;;;;5115954;27;20099;-71
2021/07/10 02:11:17;;;;;;;27.92;15.95;;;16.70;99.90;;;;;;5133862;27;20038;-71
2021/07/10 02:13:43;;;;;;;28.50;15.77;;;16.70;99.90;;;;;;5133831;27;20469;-71
2021/07/10 02:16:10;;;;;;;25.63;16.13;;;16.70;99.90;;;;;;5133825;27;20043;-71
2021/07/10 02:18:36;;;;;;;29.35;16.33;;;16.70;99.90;;;;;;5134189;27;20459;-71
2021/07/10 02:21:04;;;;;;;26.83;14.93;;;16.60;99.90;;;;;;5134381;27;20023;-72
2021/07/10 02:23:29;;;;;;;33.60;16.17;;;16.60;99.90;;;;;;5134035;27;20426;-72
2021/07/10 02:25:55;;;;;;;28.73;15.93;;;16.60;99.90;;;;;;5133822;27;20039;-72
2021/07/10 02:28:21;;;;;;;28.42;16.17;;;16.60;99.90;;;;;;5133608;27;20051;-72
2021/07/10 02:30:47;;;;;;;30.48;17.40;;;16.60;99.90;;;;;;5133564;27;20026;-71
2021/07/10 02:33:13;;;;;;;29.48;16.30;;;16.60;99.90;;;;;;5116460;27;20338;-72
2021/07/10 02:35:39;;;;;;;25.88;15.77;;;16.60;99.90;;;;;;5115496;27;20023;-72
2021/07/10 02:38:05;;;;;;;30.02;15.65;;;16.50;99.90;;;;;;5133541;27;20433;-72
2021/07/10 02:40:30;;;;;;;30.42;15.57;;;16.50;99.90;;;;;;5133341;27;20066;-71
2021/07/10 02:42:56;;;;;;;35.15;16.15;;;16.50;99.90;;;;;;5133248;27;20395;-71
2021/07/10 02:45:22;;;;;;;30.55;16.98;;;16.50;99.90;;;;;;5133893;27;20389;-71
2021/07/10 02:47:49;;;;;;;24.50;15.85;;;16.40;99.90;;;;;;5132604;27;20109;-72
2021/07/10 02:50:19;;;;;;;27.27;15.50;;;16.40;99.90;;;;;;5133302;27;20054;-73
2021/07/10 02:52:46;;;;;;;24.58;15.07;;;16.40;99.90;;;;;;5114764;27;20030;-72
2021/07/10 02:55:12;;;;;;;23.15;14.73;;;16.40;99.90;;;;;;5133348;27;20027;-72
2021/07/10 02:57:38;;;;;;;34.90;17.77;;;16.40;99.90;;;;;;5133197;27;20023;-71
2021/07/10 03:00:08;;;;;;;25.75;16.27;;;16.40;99.90;;;;;;5115247;27;20030;-72
2021/07/10 03:02:33;;;;;;;30.13;16.27;;;16.40;99.90;;;;;;5114743;27;20102;-72
2021/07/10 03:04:59;;;;;;;29.63;16.52;;;16.30;99.90;;;;;;5133137;27;20098;-72
2021/07/10 03:07:24;;;;;;;27.42;17.15;;;16.30;99.90;;;;;;5133142;27;20445;-71
2021/07/10 03:09:50;;;;;;;25.73;15.60;;;16.30;99.90;;;;;;5132877;27;20027;-72
2021/07/10 03:12:15;;;;;;;27.10;16.75;;;16.30;99.90;;;;;;5133180;27;20023;-72
2021/07/10 03:14:41;;;;;;;25.20;15.70;;;16.30;99.90;;;;;;5132751;27;20129;-72
2021/07/10 03:17:07;;;;;;;25.08;15.02;;;16.30;99.90;;;;;;5132580;27;20019;-71
2021/07/10 03:19:32;;;;;;;25.55;16.80;;;16.30;99.90;;;;;;5132563;27;20065;-71
2021/07/10 03:21:58;;;;;;;27.92;15.68;;;16.40;99.90;;;;;;5132531;27;20055;-71
2021/07/10 03:24:23;;;;;;;26.15;15.98;;;16.20;99.90;;;;;;5133061;27;20020;-71
2021/07/10 03:26:49;;;;;;;28.88;16.90;;;16.30;99.90;;;;;;5132965;27;20023;-71
2021/07/10 03:29:15;;;;;;;29.67;16.63;;;16.30;99.90;;;;;;5132617;27;20034;-71
2021/07/10 03:31:40;;;;;;;28.25;15.63;;;16.20;99.90;;;;;;5132536;27;20121;-71
2021/07/10 03:34:06;;;;;;;27.17;16.17;;;16.30;99.90;;;;;;5132505;27;20455;-71
2021/07/10 03:36:31;;;;;;;37.30;16.33;;;16.20;99.90;;;;;;5133006;27;20548;-70
2021/07/10 03:38:57;;;;;;;31.83;16.70;;;16.20;99.90;;;;;;5132196;27;20027;-72
2021/07/10 03:41:23;;;;;;;32.33;16.98;;;16.20;99.90;;;;;;5132105;27;20411;-71
2021/07/10 03:43:49;;;;;;;25.27;16.17;;;16.20;99.90;;;;;;5132205;27;20027;-70
2021/07/10 03:46:14;;;;;;;29.58;17.67;;;16.10;99.90;;;;;;5131925;27;20095;-71
2021/07/10 03:48:40;;;;;;;27.17;16.30;;;16.20;99.90;;;;;;5132014;27;20441;-72
2021/07/10 03:51:06;;;;;;;26.17;16.40;;;16.20;99.90;;;;;;5132370;27;20043;-72
2021/07/10 03:53:32;;;;;;;22.98;15.35;;;16.20;99.90;;;;;;5131877;27;20023;-72
2021/07/10 03:55:58;;;;;;;27.63;16.20;;;16.20;99.90;;;;;;5131948;27;20080;-72
2021/07/10 03:58:23;;;;;;;29.88;16.40;;;16.10;99.90;;;;;;5113746;27;20039;-72
2021/07/10 04:00:49;;;;;;;25.70;14.88;;;16.10;99.90;;;;;;5131598;27;20436;-72
2021/07/10 04:03:15;;;;;;;26.88;14.80;;;16.10;99.90;;;;;;5132229;27;20481;-72
2021/07/10 04:05:41;;;;;;;25.25;15.55;;;16.10;99.90;;;;;;5132164;27;20399;-72
2021/07/10 04:08:07;;;;;;;27.60;15.10;;;16.10;99.90;;;;;;5131811;27;20027;-71
2021/07/10 04:10:32;;;;;;;23.38;15.05;;;16.10;99.90;;;;;;5132004;27;20118;-70
2021/07/10 04:12:58;;;;;;;29.58;16.58;;;16.20;99.90;;;;;;5131669;27;20043;-72
2021/07/10 04:15:24;;;;;;;29.90;15.48;;;16.10;99.90;;;;;;5132045;27;20023;-72
2021/07/10 04:17:50;;;;;;;30.88;16.10;;;16.20;99.90;;;;;;5113628;28;20027;-72
2021/07/10 04:20:18;;;;;;;30.00;15.57;;;16.20;99.90;;;;;;5131757;27;20476;-72
2021/07/10 04:22:44;;;;;;;28.08;15.27;;;16.20;99.90;;;;;;5131671;27;20055;-69
2021/07/10 04:25:13;;;;;;;26.38;14.82;;;16.20;99.90;;;;;;5131518;27;20047;-72
2021/07/10 04:27:41;;;;;;;26.67;15.35;;;16.20;99.90;;;;;;5131606;27;20019;-72
2021/07/10 04:30:08;;;;;;;27.98;14.48;;;16.20;99.90;;;;;;5132305;28;20090;-72
2021/07/10 04:32:33;;;;;;;27.70;15.75;;;16.20;99.90;;;;;;5131697;28;20322;-72
2021/07/10 04:34:59;;;;;;;27.55;15.38;;;16.20;99.90;;;;;;5131449;28;20215;-71
2021/07/10 04:37:25;;;;;;;28.20;14.88;;;16.20;99.90;;;;;;5131643;28;20067;-71
2021/07/10 04:39:51;;;;;;;24.45;15.05;;;16.20;99.90;;;;;;5131058;28;20372;-71
2021/07/10 04:42:16;;;;;;;25.23;14.90;;;16.20;99.90;;;;;;5131691;28;20459;-71
2021/07/10 04:44:43;;;;;;;23.05;14.30;;;16.30;99.90;;;;;;5131322;28;20475;-71
2021/07/10 04:47:09;;;;;;;24.73;14.23;;;16.30;99.90;;;;;;5131499;28;20027;-71
2021/07/10 04:49:35;;;;;;;26.17;14.65;;;16.30;99.90;;;;;;5131124;28;20042;-71
2021/07/10 04:52:01;;;;;;;26.75;14.88;;;16.30;99.90;;;;;;5131420;28;20380;-72
2021/07/10 04:54:27;;;;;;;26.25;16.13;;;16.30;99.90;;;;;;5131665;28;20106;-72
2021/07/10 04:56:53;;;;;;;24.33;14.27;;;16.30;99.90;;;;;;5113068;28;20488;-70
2021/07/10 04:59:18;;;;;;;27.50;14.30;;;16.40;99.90;;;;;;5131414;28;20200;-73
2021/07/10 05:01:44;;;;;;;20.73;14.45;;;16.40;99.90;;;;;;5113083;28;20027;-71
2021/07/10 05:04:09;;;;;;;26.42;15.48;;;16.40;99.90;;;;;;5131114;28;20034;-71
2021/07/10 05:06:35;;;;;;;23.35;13.77;;;16.40;99.90;;;;;;5131193;28;20356;-71
2021/07/10 05:09:01;;;;;;;26.15;15.35;;;16.40;99.90;;;;;;5131617;28;20019;-72
2021/07/10 05:11:26;;;;;;;26.05;14.32;;;16.50;99.90;;;;;;5132009;27;20030;-71
2021/07/10 05:13:52;;;;;;;26.42;14.32;;;16.50;99.90;;;;;;5134723;27;20433;-69
2021/07/10 05:16:17;;;;;;;25.83;13.82;;;16.50;99.90;;;;;;5135113;27;20027;-72
2021/07/10 05:18:43;;;;;;;28.92;15.25;;;16.60;99.90;;;;;;5134833;27;20394;-71
2021/07/10 05:21:09;;;;;;;24.70;14.93;;;16.60;99.90;;;;;;5135487;27;20342;-71
2021/07/10 05:23:34;;;;;;;21.35;14.00;;;16.70;99.90;;;;;;5134995;27;20432;-71
2021/07/10 05:26:00;;;;;;;29.55;15.52;;;16.70;99.90;;;;;;5116582;27;20065;-71
2021/07/10 05:28:25;;;;;;;29.25;14.88;;;16.80;99.90;;;;;;5134764;27;20431;-72
2021/07/10 05:30:51;;;;;;;26.50;15.13;;;16.90;99.90;;;;;;5134819;27;20425;-72
2021/07/10 05:33:19;;;;;;;27.77;14.90;;;17.00;99.90;;;;;;5117403;27;20019;-72
2021/07/10 05:35:45;;;;;;;22.23;13.65;;;17.00;99.90;;;;;;5134587;27;20099;-71
2021/07/10 05:38:12;;;;;;;23.42;14.50;;;17.00;99.90;;;;;;5134841;27;20080;-70
2021/07/10 05:40:37;;;;;;;23.08;14.38;;;17.10;99.90;;;;;;5116334;27;20067;-72
2021/07/10 05:43:03;;;;;;;24.02;14.90;;;17.10;99.90;;;;;;5134875;27;20038;-71
2021/07/10 05:45:29;;;;;;;22.23;13.75;;;17.20;99.90;;;;;;5116862;27;20019;-71
2021/07/10 05:47:55;;;;;;;21.98;13.65;;;17.30;99.90;;;;;;5134206;27;20031;-71
2021/07/10 05:50:21;;;;;;;21.55;13.38;;;17.30;99.90;;;;;;5134222;27;20050;-71
2021/07/10 05:52:46;;;;;;;19.40;13.60;;;17.30;99.90;;;;;;5116193;27;20036;-71
2021/07/10 05:55:12;;;;;;;19.23;12.73;;;17.20;99.90;;;;;;5134741;27;20046;-71
2021/07/10 05:57:38;;;;;;;20.65;13.40;;;17.30;99.90;;;;;;5134091;27;20468;-72
2021/07/10 06:00:09;;;;;;;20.05;13.35;;;17.40;99.90;;;;;;5134828;27;20015;-71
2021/07/10 06:02:35;;;;;;;22.08;13.00;;;17.40;99.90;;;;;;5134143;27;20329;-70
2021/07/10 06:05:01;;;;;;;20.15;13.35;;;17.50;99.90;;;;;;5134392;27;20062;-71
2021/07/10 06:07:26;;;;;;;20.88;13.73;;;17.50;99.90;;;;;;5134203;27;20049;-73
2021/07/10 06:09:52;;;;;;;21.58;13.25;;;17.60;99.90;;;;;;5134445;27;20042;-70
2021/07/10 06:12:17;;;;;;;20.98;13.68;;;17.50;99.90;;;;;;5134611;27;20031;-73
2021/07/10 06:14:43;;;;;;;23.05;12.70;;;17.50;99.90;;;;;;5133835;27;20023;-73
2021/07/10 06:17:09;;;;;;;17.50;12.27;;;17.70;99.90;;;;;;5134252;27;20038;-74
2021/07/10 06:19:34;;;;;;;19.92;12.30;;;17.70;99.90;;;;;;5134335;27;20428;-72
2021/07/10 06:22:00;;;;;;;21.48;12.93;;;17.70;99.90;;;;;;5133518;27;20349;-71
2021/07/10 06:24:26;;;;;;;22.40;13.13;;;17.70;99.90;;;;;;5134312;27;20027;-73
2021/07/10 06:26:53;;;;;;;21.17;13.02;;;17.70;99.90;;;;;;5134036;27;20027;-74
2021/07/10 06:29:18;;;;;;;25.27;11.88;;;17.70;99.90;;;;;;5134303;27;20035;-74
2021/07/10 06:31:44;;;;;;;22.45;13.15;;;17.80;99.90;;;;;;5134114;27;20037;-77
2021/07/10 06:34:09;;;;;;;21.05;12.07;;;17.90;99.90;;;;;;5133719;27;20175;-75
2021/07/10 06:36:39;;;;;;;18.05;11.57;;;18.10;99.90;;;;;;5133484;27;20038;-73
2021/07/10 06:39:05;;;;;;;21.58;12.70;;;18.00;99.90;;;;;;5115174;27;20138;-75
2021/07/10 06:41:31;;;;;;;18.33;12.10;;;18.00;99.90;;;;;;5133297;27;20512;-75
2021/07/10 06:43:58;;;;;;;17.83;11.60;;;18.10;99.90;;;;;;5115130;27;20031;-74
2021/07/10 06:46:23;;;;;;;19.17;12.27;;;18.10;99.90;;;;;;5133448;27;20350;-74
2021/07/10 06:48:49;;;;;;;21.85;11.73;;;18.30;99.90;;;;;;5114966;27;20027;-74
2021/07/10 06:51:16;;;;;;;20.05;11.75;;;18.40;99.90;;;;;;5134154;27;20027;-79
2021/07/10 06:53:43;;;;;;;18.67;11.30;;;18.40;99.90;;;;;;5114937;27;20027;-73
2021/07/10 06:56:09;;;;;;;16.52;11.02;;;18.50;99.90;;;;;;5133067;27;20023;-75
2021/07/10 06:58:34;;;;;;;15.57;10.23;;;18.50;99.90;;;;;;5114861;27;20118;-76
2021/07/10 07:01:00;;;;;;;17.33;10.63;;;18.70;99.90;;;;;;5133105;27;20114;-73
2021/07/10 07:03:26;;;;;;;21.77;11.73;;;18.60;99.90;;;;;;5133219;27;20667;-72
2021/07/10 07:05:51;;;;;;;18.63;11.30;;;18.80;99.90;;;;;;5133100;27;20084;-72
2021/07/10 07:08:17;;;;;;;19.13;11.43;;;18.80;99.90;;;;;;5132732;27;20102;-70
2021/07/10 07:10:43;;;;;;;20.45;10.45;;;18.90;99.90;;;;;;5133170;27;20043;-72
2021/07/10 07:13:09;;;;;;;14.80;9.82;;;19.00;99.90;;;;;;5114543;27;20023;-70
2021/07/10 07:15:34;;;;;;;16.73;10.70;;;19.00;99.90;;;;;;5114389;27;20080;-71
2021/07/10 07:18:00;;;;;;;17.70;10.52;;;19.00;99.90;;;;;;5133386;27;20507;-71
2021/07/10 07:20:26;;;;;;;19.05;10.10;;;19.00;99.80;;;;;;5132849;27;20091;-71
2021/07/10 07:22:52;;;;;;;20.80;10.30;;;19.00;99.70;;;;;;5132638;27;20042;-72
2021/07/10 07:25:21;;;;;;;21.60;10.82;;;19.00;99.70;;;;;;5114616;27;20028;-71
2021/07/10 07:27:48;;;;;;;16.60;9.55;;;19.10;99.60;;;;;;5132345;27;20507;-73
2021/07/10 07:30:14;;;;;;;17.75;10.95;;;19.30;99.50;;;;;;5132962;27;20134;-73
2021/07/10 07:32:40;;;;;;;16.25;10.20;;;19.30;99.40;;;;;;5132524;27;20027;-72
2021/07/10 07:35:09;;;;;;;16.42;10.65;;;19.30;99.20;;;;;;5131814;27;20038;-72
2021/07/10 07:37:34;;;;;;;15.65;9.77;;;19.30;99.20;;;;;;5132553;27;20507;-70
2021/07/10 07:40:00;;;;;;;16.63;10.85;;;19.20;99.10;;;;;;5113862;27;20035;-70
2021/07/10 07:42:26;;;;;;;56.70;35.55;;;19.30;98.90;;;;;;5132412;27;20452;-71
2021/07/10 07:44:52;;;;;;;27.02;17.08;;;19.40;99.20;;;;;;5131977;27;20035;-71
2021/07/10 07:47:18;;;;;;;17.58;10.85;;;19.30;99.30;;;;;;5132351;27;20028;-71
2021/07/10 07:49:46;;;;;;;21.80;12.27;;;19.40;99.20;;;;;;5131672;27;20043;-70
2021/07/10 07:52:12;;;;;;;17.73;10.95;;;19.30;99.40;;;;;;5131852;27;20041;-69
2021/07/10 07:54:38;;;;;;;17.42;10.90;;;19.40;99.70;;;;;;5131913;27;20031;-71
2021/07/10 07:57:05;;;;;;;19.10;11.80;;;19.40;99.80;;;;;;5132387;27;20096;-70
2021/07/10 07:59:31;;;;;;;18.57;11.57;;;19.40;99.60;;;;;;5132006;27;20059;-71
2021/07/10 08:01:57;;;;;;;15.85;10.80;;;19.40;99.60;;;;;;5131770;27;20062;-71
2021/07/10 08:04:23;;;;;;;17.15;11.32;;;19.40;99.60;;;;;;5131900;27;20031;-70
2021/07/10 08:06:49;;;;;;;24.10;11.13;;;19.40;99.60;;;;;;5131911;27;20069;-70
2021/07/10 08:09:14;;;;;;;15.45;11.20;;;19.60;99.70;;;;;;5132011;27;20288;-70
2021/07/10 08:11:40;;;;;;;21.08;11.55;;;19.70;99.60;;;;;;5131523;27;20031;-71
2021/07/10 08:14:07;;;;;;;18.83;11.43;;;19.80;99.40;;;;;;5131641;27;20351;-71
2021/07/10 08:16:32;;;;;;;17.63;10.70;;;19.80;99.20;;;;;;5131422;27;20031;-70
2021/07/10 08:18:58;;;;;;;19.40;11.82;;;19.80;99.20;;;;;;5131440;27;20039;-70
2021/07/10 08:21:26;;;;;;;20.40;11.45;;;19.70;99.00;;;;;;5113608;28;20102;-70
2021/07/10 08:23:53;;;;;;;16.40;10.73;;;19.80;98.80;;;;;;5113244;28;20365;-67
2021/07/10 08:26:20;;;;;;;17.58;10.48;;;20.00;98.90;;;;;;5131661;27;20122;-69
2021/07/10 08:28:46;;;;;;;19.55;11.32;;;20.30;98.80;;;;;;5113224;28;20368;-70
2021/07/10 08:31:12;;;;;;;17.83;11.30;;;20.50;98.60;;;;;;5113777;28;20023;-70
2021/07/10 08:33:38;;;;;;;15.45;9.80;;;20.70;98.40;;;;;;5113340;28;20042;-68
2021/07/10 08:36:04;;;;;;;14.52;9.25;;;21.00;98.30;;;;;;5131842;28;20012;-69
2021/07/10 08:38:29;;;;;;;17.80;10.00;;;21.20;98.00;;;;;;5131491;28;20036;-73
2021/07/10 08:40:55;;;;;;;18.73;10.35;;;21.50;97.90;;;;;;5130923;28;20134;-73
2021/07/10 08:43:21;;;;;;;16.65;10.30;;;21.70;97.20;;;;;;5131574;28;20031;-73
2021/07/10 08:45:48;;;;;;;19.88;10.38;;;22.00;96.70;;;;;;5131475;27;20106;-73
2021/07/10 08:48:15;;;;;;;17.42;10.05;;;22.10;96.90;;;;;;5135659;27;20019;-74
2021/07/10 08:50:41;;;;;;;13.02;9.43;;;22.20;96.60;;;;;;5135497;27;20031;-73
2021/07/10 08:53:10;;;;;;;16.13;10.40;;;22.70;96.50;;;;;;5135511;27;20023;-70
2021/07/10 08:55:36;;;;;;;14.82;8.75;;;23.40;96.50;;;;;;5135345;27;20122;-71
2021/07/10 08:58:03;;;;;;;13.82;8.57;;;24.30;95.00;;;;;;5135650;27;20341;-72
2021/07/10 09:00:38;;;;;;;17.25;9.75;;;24.50;93.30;;;;;;5117393;27;20049;-74
2021/07/10 09:03:05;;;;;;;19.10;13.35;;;25.00;93.30;;;;;;5135392;27;20027;-71
2021/07/10 09:05:31;;;;;;;23.30;11.90;;;25.80;92.20;;;;;;5135224;27;20107;-70
2021/07/10 09:08:23;;;;;;;13.95;9.23;;;25.70;92.00;;;;;;5134793;27;20059;-70
2021/07/10 09:10:59;;;;;;;13.18;8.52;;;26.70;91.60;;;;;;5134926;27;20042;-70
2021/07/10 09:13:39;;;;;;;22.42;15.52;;;26.90;89.70;;;;;;5135018;27;20122;-69
2021/07/10 09:16:29;;;;;;;13.52;9.18;;;26.70;89.30;;;;;;5134899;27;20058;-71
2021/07/10 09:18:56;;;;;;;12.13;8.55;;;26.70;87.70;;;;;;5134960;27;20110;-71
2021/07/10 09:21:48;;;;;;;13.55;8.80;;;26.50;88.80;;;;;;5135483;27;20031;-71
2021/07/10 09:24:25;;;;;;;14.68;8.73;;;26.30;89.60;;;;;;5134765;27;20464;-71
2021/07/10 09:26:56;;;;;;;12.38;8.57;;;26.00;90.20;;;;;;5134967;27;20027;-70
2021/07/10 09:29:24;;;;;;;16.73;8.15;;;26.00;89.20;;;;;;5134679;27;20099;-70
2021/07/10 09:32:01;;;;;;;15.02;8.93;;;25.40;90.40;;;;;;5134894;27;20023;-69
2021/07/10 09:34:32;;;;;;;12.95;8.05;;;25.60;90.30;;;;;;5134381;27;20509;-69
2021/07/10 09:37:01;;;;;;;14.75;7.70;;;25.30;90.70;;;;;;5134310;27;20445;-69
2021/07/10 09:39:43;;;;;;;13.93;8.00;;;25.30;90.20;;;;;;5134224;27;20043;-68
2021/07/10 09:42:13;;;;;;;10.90;7.78;;;25.40;90.90;;;;;;5133191;28;20038;-66
2021/07/10 09:44:51;;;;;;;17.60;8.95;;;25.30;90.70;;;;;;5114823;28;20031;-68
2021/07/10 09:47:24;;;;;;;13.05;7.18;;;25.20;90.70;;;;;;5133203;28;20569;-70
2021/07/10 09:49:50;;;;;;;18.67;7.72;;;25.30;90.90;;;;;;5132974;28;20043;-69
2021/07/10 09:52:18;;;;;;;11.07;7.57;;;25.50;90.40;;;;;;5133367;28;20243;-72
2021/07/10 09:54:59;;;;;;;15.38;7.95;;;25.40;90.70;;;;;;5133073;28;20460;-69
2021/07/10 09:57:31;;;;;;;13.10;7.28;;;25.30;90.30;;;;;;5133204;27;20566;-69
2021/07/10 10:00:16;;;;;;;43.60;25.67;;;25.20;90.30;;;;;;5132947;28;20399;-70
2021/07/10 10:02:51;;;;;;;11.15;8.07;;;25.40;90.40;;;;;;5114064;28;20043;-69
2021/07/10 10:05:19;;;;;;;12.23;6.93;;;25.10;90.20;;;;;;5132749;28;20460;-69
2021/07/10 10:07:51;;;;;;;;;;;25.50;90.80;;;;;;5133106;28;20031;-70
2021/07/10 10:10:33;;;;;;;14.60;6.70;;;25.60;90.10;;;;;;5114417;28;19916;-68
2021/07/10 10:13:05;;;;;;;9.35;6.28;;;25.50;90.00;;;;;;5132595;28;20023;-69
2021/07/10 10:15:48;;;;;;;15.25;6.43;;;25.40;90.30;;;;;;5133436;28;20106;-70
2021/07/10 10:18:16;;;;;;;10.10;6.55;;;25.90;90.30;;;;;;5132946;28;20501;-69
2021/07/10 10:20:42;;;;;;;19.48;7.43;;;26.10;90.10;;;;;;5132385;28;20036;-69
2021/07/10 10:23:10;;;;;;;12.18;7.38;;;26.00;90.00;;;;;;5132369;28;20407;-69
2021/07/10 10:25:36;;;;;;;10.93;7.30;;;26.00;89.90;;;;;;5132795;28;20049;-68
2021/07/10 10:28:18;;;;;;;10.98;6.68;;;25.70;88.80;;;;;;5132746;28;20115;-69
2021/07/10 10:30:45;;;;;;;11.90;6.25;;;25.40;90.00;;;;;;5132700;28;20027;-70
2021/07/10 10:33:11;;;;;;;12.00;6.82;;;25.60;90.30;;;;;;5114801;28;20075;-69
2021/07/10 10:35:36;;;;;;;8.18;5.80;;;25.40;88.80;;;;;;5114407;28;20153;-69
2021/07/10 10:38:02;;;;;;;11.55;6.55;;;25.50;87.60;;;;;;5132371;28;20123;-70
2021/07/10 10:40:28;;;;;;;9.13;6.57;;;25.40;87.90;;;;;;5095855;27;1032351;-71
2021/07/10 10:43:00;;;;;;;9.82;5.47;;;25.30;87.40;;;;;;5133348;27;20252;-70
2021/07/10 10:45:28;;;;;;;8.93;6.05;;;25.20;87.70;;;;;;5115287;27;20038;-73
2021/07/10 10:47:53;;;;;;;10.15;5.20;;;25.10;87.40;;;;;;5133302;27;20066;-71
2021/07/10 10:50:32;;;;;;;8.30;5.82;;;25.10;87.40;;;;;;5133254;27;20070;-68
2021/07/10 10:52:58;;;;;;;10.82;5.82;;;24.90;88.20;;;;;;5133129;27;20041;-69
2021/07/10 10:55:31;;;;;;;10.13;5.32;;;25.00;88.40;;;;;;5133587;27;20034;-73
2021/07/10 10:58:22;;;;;;;9.05;5.97;;;25.10;88.40;;;;;;5133030;27;20102;-74
2021/07/10 11:00:56;;;;;;;9.95;6.00;;;25.00;88.50;;;;;;5132806;27;20027;-74
2021/07/10 11:03:22;;;;;;;8.95;6.07;;;24.80;89.10;;;;;;5133810;27;20027;-75
2021/07/10 11:05:55;;;;;;;7.63;5.00;;;25.10;88.60;;;;;;5133176;27;20076;-72
2021/07/10 11:08:38;;;;;;;9.07;5.70;;;25.10;88.90;;;;;;5132588;27;20458;-71
2021/07/10 11:11:03;;;;;;;10.20;6.13;;;25.00;88.80;;;;;;5113983;27;20035;-72
2021/07/10 11:13:33;;;;;;;9.05;5.53;;;24.60;89.10;;;;;;5132452;27;20031;-72
2021/07/10 11:16:08;;;;;;;11.13;6.50;;;24.70;89.90;;;;;;5132501;27;20363;-72
2021/07/10 11:18:58;;;;;;;8.30;5.32;;;24.90;89.90;;;;;;5114338;27;20431;-72
2021/07/10 11:21:39;;;;;;;12.30;6.15;;;24.90;89.30;;;;;;5133025;27;20456;-70
2021/07/10 11:24:19;;;;;;;9.27;5.20;;;25.10;90.10;;;;;;5133131;27;20055;-69
2021/07/10 11:26:54;;;;;;;9.70;5.10;;;25.30;89.60;;;;;;5132563;27;20397;-71
2021/07/10 11:29:31;;;;;;;7.75;4.95;;;25.50;89.10;;;;;;5132365;27;20365;-73
2021/07/10 11:32:12;;;;;;;13.13;4.75;;;25.60;90.10;;;;;;5132123;27;20214;-74
2021/07/10 11:34:49;;;;;;;11.63;4.90;;;25.40;87.70;;;;;;5132159;27;20027;-72
2021/07/10 11:37:16;;;;;;;6.95;5.18;;;25.20;88.70;;;;;;5132212;27;20467;-71
2021/07/10 11:39:43;;;;;;;6.45;4.97;;;25.20;87.50;;;;;;5132319;27;20122;-70
2021/07/10 11:42:18;;;;;;;10.73;4.90;;;25.30;87.50;;;;;;5114957;27;20038;-71
2021/07/10 11:44:46;;;;;;;7.63;4.93;;;25.40;87.30;;;;;;5132213;27;20023;-77
2021/07/10 11:47:12;;;;;;;8.75;5.10;;;25.50;86.80;;;;;;5132532;27;20475;-73
2021/07/10 11:49:39;;;;;;;8.15;4.65;;;25.50;86.80;;;;;;5132176;27;20350;-74
2021/07/10 11:52:16;;;;;;;7.32;4.60;;;25.00;86.20;;;;;;5131984;27;20087;-72
2021/07/10 11:54:47;;;;;;;9.07;4.85;;;25.10;86.30;;;;;;5131989;27;20038;-71
2021/07/10 11:57:13;;;;;;;9.68;5.30;;;24.90;86.80;;;;;;5132609;27;20342;-73
2021/07/10 11:59:41;;;;;;;8.43;5.57;;;24.90;87.40;;;;;;5131896;27;20026;-73
2021/07/10 12:02:29;;;;;;;7.77;5.47;;;24.90;88.60;;;;;;5131870;27;20490;-74
2021/07/10 12:05:09;;;;;;;8.10;5.85;;;25.00;89.90;;;;;;5131832;27;20023;-73
2021/07/10 12:07:39;;;;;;;8.30;5.68;;;24.80;89.20;;;;;;5113798;27;20027;-72
2021/07/10 12:10:14;;;;;;;7.70;5.43;;;24.80;89.70;;;;;;5131792;27;20035;-72
2021/07/10 12:12:56;;;;;;;8.10;5.15;;;24.90;89.30;;;;;;5131722;27;20031;-72
2021/07/10 12:15:26;;;;;;;7.10;4.60;;;24.90;88.20;;;;;;5132182;27;20533;-70
2021/07/10 12:17:55;;;;;;;8.27;4.70;;;24.90;89.30;;;;;;5131577;27;20376;-77
2021/07/10 12:20:27;;;;;;;8.32;5.53;;;25.00;89.00;;;;;;5131414;27;20035;-71
2021/07/10 12:22:56;;;;;;;10.60;4.78;;;25.10;88.40;;;;;;5113266;27;20188;-70
2021/07/10 12:25:24;;;;;;;11.98;4.75;;;25.00;88.60;;;;;;5131501;27;20039;-71
2021/07/10 12:28:04;;;;;;;7.93;4.95;;;25.00;89.40;;;;;;5131541;27;20019;-70
2021/07/10 12:30:48;;;;;;;7.07;5.22;;;24.90;88.40;;;;;;5131842;27;20023;-71
2021/07/10 12:33:38;;;;;;;6.57;4.45;;;24.80;89.00;;;;;;5131823;28;20143;-70
2021/07/10 12:36:19;;;;;;;5.97;4.55;;;25.00;88.20;;;;;;5131646;28;20465;-70